sensor_id;sensor_type;location;lat;lon;timestamp;P1;durP1;ratioP1;P2;durP2;ratioP2
49223;SDS011;35050;51.316;5.994;2022-10-16T00:01:12;0.70;;;0.60;;
49223;SDS011;35050;51.316;5.994;2022-10-16T00:03:39;1.63;;;0.98;;
49223;SDS011;35050;51.316;5.994;2022-10-16T00:06:06;2.15;;;0.88;;
49223;SDS011;35050;51.316;5.994;2022-10-16T00:08:33;1.33;;;0.95;;
49223;SDS011;35050;51.316;5.994;2022-10-16T00:11:00;0.60;;;0.60;;
49223;SDS011;35050;51.316;5.994;2022-10-16T00:13:28;0.65;;;0.65;;
49223;SDS011;35050;51.316;5.994;2022-10-16T00:15:54;0.90;;;0.65;;
49223;SDS011;35050;51.316;5.994;2022-10-16T00:18:22;2.17;;;0.75;;
49223;SDS011;35050;51.316;5.994;2022-10-16T00:20:47;0.90;;;0.80;;
49223;SDS011;35050;51.316;5.994;2022-10-16T00:23:13;0.70;;;0.70;;
49223;SDS011;35050;51.316;5.994;2022-10-16T00:25:39;1.38;;;0.85;;
49223;SDS011;35050;51.316;5.994;2022-10-16T00:28:04;0.70;;;0.70;;
49223;SDS011;35050;51.316;5.994;2022-10-16T00:30:30;0.90;;;0.70;;
49223;SDS011;35050;51.316;5.994;2022-10-16T00:32:56;0.73;;;0.73;;
49223;SDS011;35050;51.316;5.994;2022-10-16T00:35:21;1.23;;;0.70;;
49223;SDS011;35050;51.316;5.994;2022-10-16T00:37:47;1.08;;;0.98;;
49223;SDS011;35050;51.316;5.994;2022-10-16T00:40:13;0.73;;;0.68;;
49223;SDS011;35050;51.316;5.994;2022-10-16T00:42:38;0.75;;;0.60;;
49223;SDS011;35050;51.316;5.994;2022-10-16T00:45:04;0.95;;;0.73;;
49223;SDS011;35050;51.316;5.994;2022-10-16T00:47:32;1.83;;;0.70;;
49223;SDS011;35050;51.316;5.994;2022-10-16T00:50:12;0.98;;;0.75;;
49223;SDS011;35050;51.316;5.994;2022-10-16T00:52:43;1.70;;;0.70;;
49223;SDS011;35050;51.316;5.994;2022-10-16T00:55:11;0.90;;;0.70;;
49223;SDS011;35050;51.316;5.994;2022-10-16T00:57:37;0.75;;;0.63;;
49223;SDS011;35050;51.316;5.994;2022-10-16T01:00:04;1.95;;;0.77;;
49223;SDS011;35050;51.316;5.994;2022-10-16T01:02:32;0.65;;;0.65;;
49223;SDS011;35050;51.316;5.994;2022-10-16T01:04:57;0.90;;;0.80;;
49223;SDS011;35050;51.316;5.994;2022-10-16T01:12:50;0.93;;;0.82;;
49223;SDS011;35050;51.316;5.994;2022-10-16T01:18:14;0.50;;;0.50;;
49223;SDS011;35050;51.316;5.994;2022-10-16T01:31:47;1.08;;;0.47;;
49223;SDS011;35050;51.316;5.994;2022-10-16T01:34:18;1.00;;;0.50;;
49223;SDS011;35050;51.316;5.994;2022-10-16T01:36:50;0.68;;;0.43;;
49223;SDS011;35050;51.316;5.994;2022-10-16T01:39:21;0.65;;;0.45;;
49223;SDS011;35050;51.316;5.994;2022-10-16T01:41:54;0.50;;;0.50;;
49223;SDS011;35050;51.316;5.994;2022-10-16T01:44:28;0.57;;;0.50;;
49223;SDS011;35050;51.316;5.994;2022-10-16T01:46:56;0.40;;;0.40;;
49223;SDS011;35050;51.316;5.994;2022-10-16T01:49:23;2.47;;;0.60;;
49223;SDS011;35050;51.316;5.994;2022-10-16T01:51:52;0.40;;;0.40;;
49223;SDS011;35050;51.316;5.994;2022-10-16T01:54:21;0.40;;;0.40;;
49223;SDS011;35050;51.316;5.994;2022-10-16T01:56:51;2.72;;;0.57;;
49223;SDS011;35050;51.316;5.994;2022-10-16T01:59:18;0.80;;;0.60;;
49223;SDS011;35050;51.316;5.994;2022-10-16T02:01:47;1.65;;;0.57;;
49223;SDS011;35050;51.316;5.994;2022-10-16T02:06:51;0.50;;;0.50;;
49223;SDS011;35050;51.316;5.994;2022-10-16T02:09:17;0.88;;;0.50;;
49223;SDS011;35050;51.316;5.994;2022-10-16T02:11:43;1.13;;;0.60;;
49223;SDS011;35050;51.316;5.994;2022-10-16T02:14:10;1.90;;;0.40;;
49223;SDS011;35050;51.316;5.994;2022-10-16T02:16:37;0.52;;;0.50;;
49223;SDS011;35050;51.316;5.994;2022-10-16T02:19:05;1.05;;;0.60;;
49223;SDS011;35050;51.316;5.994;2022-10-16T02:21:41;1.52;;;0.50;;
49223;SDS011;35050;51.316;5.994;2022-10-16T02:24:23;0.80;;;0.70;;
49223;SDS011;35050;51.316;5.994;2022-10-16T02:27:01;0.40;;;0.40;;
49223;SDS011;35050;51.316;5.994;2022-10-16T02:29:33;0.60;;;0.57;;
49223;SDS011;35050;51.316;5.994;2022-10-16T02:32:04;0.93;;;0.63;;
49223;SDS011;35050;51.316;5.994;2022-10-16T02:34:32;0.65;;;0.55;;
49223;SDS011;35050;51.316;5.994;2022-10-16T02:36:59;0.43;;;0.43;;
49223;SDS011;35050;51.316;5.994;2022-10-16T02:39:29;0.57;;;0.50;;
49223;SDS011;35050;51.316;5.994;2022-10-16T02:41:56;1.40;;;0.70;;
49223;SDS011;35050;51.316;5.994;2022-10-16T02:44:21;0.73;;;0.60;;
49223;SDS011;35050;51.316;5.994;2022-10-16T02:46:47;1.00;;;0.60;;
49223;SDS011;35050;51.316;5.994;2022-10-16T02:49:13;0.70;;;0.70;;
49223;SDS011;35050;51.316;5.994;2022-10-16T02:51:38;3.30;;;0.70;;
49223;SDS011;35050;51.316;5.994;2022-10-16T02:54:04;0.80;;;0.57;;
49223;SDS011;35050;51.316;5.994;2022-10-16T02:56:29;0.80;;;0.80;;
49223;SDS011;35050;51.316;5.994;2022-10-16T02:58:55;0.95;;;0.88;;
49223;SDS011;35050;51.316;5.994;2022-10-16T03:01:21;1.40;;;1.05;;
49223;SDS011;35050;51.316;5.994;2022-10-16T03:03:48;2.70;;;1.92;;
49223;SDS011;35050;51.316;5.994;2022-10-16T03:06:13;3.28;;;1.80;;
49223;SDS011;35050;51.316;5.994;2022-10-16T03:08:39;2.67;;;2.00;;
49223;SDS011;35050;51.316;5.994;2022-10-16T03:11:04;1.98;;;1.63;;
49223;SDS011;35050;51.316;5.994;2022-10-16T03:13:30;2.30;;;1.80;;
49223;SDS011;35050;51.316;5.994;2022-10-16T03:15:56;2.20;;;1.85;;
49223;SDS011;35050;51.316;5.994;2022-10-16T03:18:21;1.90;;;1.48;;
49223;SDS011;35050;51.316;5.994;2022-10-16T03:20:47;1.30;;;1.20;;
49223;SDS011;35050;51.316;5.994;2022-10-16T03:23:13;1.35;;;1.08;;
49223;SDS011;35050;51.316;5.994;2022-10-16T03:25:39;1.80;;;1.02;;
49223;SDS011;35050;51.316;5.994;2022-10-16T03:28:04;2.03;;;1.10;;
49223;SDS011;35050;51.316;5.994;2022-10-16T03:30:30;1.15;;;0.80;;
49223;SDS011;35050;51.316;5.994;2022-10-16T03:32:56;0.80;;;0.80;;
49223;SDS011;35050;51.316;5.994;2022-10-16T03:35:22;0.98;;;0.90;;
49223;SDS011;35050;51.316;5.994;2022-10-16T03:37:48;0.52;;;0.52;;
49223;SDS011;35050;51.316;5.994;2022-10-16T03:40:15;0.93;;;0.55;;
49223;SDS011;35050;51.316;5.994;2022-10-16T03:42:44;0.82;;;0.60;;
49223;SDS011;35050;51.316;5.994;2022-10-16T03:45:10;0.70;;;0.60;;
49223;SDS011;35050;51.316;5.994;2022-10-16T03:47:36;0.40;;;0.40;;
49223;SDS011;35050;51.316;5.994;2022-10-16T03:50:02;0.73;;;0.43;;
49223;SDS011;35050;51.316;5.994;2022-10-16T03:52:29;0.40;;;0.38;;
49223;SDS011;35050;51.316;5.994;2022-10-16T03:54:55;0.43;;;0.28;;
49223;SDS011;35050;51.316;5.994;2022-10-16T03:57:21;0.60;;;0.50;;
49223;SDS011;35050;51.316;5.994;2022-10-16T03:59:46;0.30;;;0.30;;
49223;SDS011;35050;51.316;5.994;2022-10-16T04:02:12;0.40;;;0.40;;
49223;SDS011;35050;51.316;5.994;2022-10-16T04:04:38;0.55;;;0.22;;
49223;SDS011;35050;51.316;5.994;2022-10-16T04:07:04;0.38;;;0.38;;
49223;SDS011;35050;51.316;5.994;2022-10-16T04:09:29;1.38;;;0.30;;
49223;SDS011;35050;51.316;5.994;2022-10-16T04:11:55;0.52;;;0.40;;
49223;SDS011;35050;51.316;5.994;2022-10-16T04:14:21;1.67;;;0.50;;
49223;SDS011;35050;51.316;5.994;2022-10-16T04:16:47;0.43;;;0.30;;
49223;SDS011;35050;51.316;5.994;2022-10-16T04:19:12;0.50;;;0.50;;
49223;SDS011;35050;51.316;5.994;2022-10-16T04:21:38;1.23;;;0.50;;
49223;SDS011;35050;51.316;5.994;2022-10-16T04:24:04;0.43;;;0.40;;
49223;SDS011;35050;51.316;5.994;2022-10-16T04:26:29;0.70;;;0.65;;
49223;SDS011;35050;51.316;5.994;2022-10-16T04:28:55;0.50;;;0.40;;
49223;SDS011;35050;51.316;5.994;2022-10-16T04:31:21;0.50;;;0.50;;
49223;SDS011;35050;51.316;5.994;2022-10-16T04:33:47;0.63;;;0.40;;
49223;SDS011;35050;51.316;5.994;2022-10-16T04:36:12;0.68;;;0.50;;
49223;SDS011;35050;51.316;5.994;2022-10-16T04:38:38;0.57;;;0.40;;
49223;SDS011;35050;51.316;5.994;2022-10-16T04:41:05;1.02;;;0.57;;
49223;SDS011;35050;51.316;5.994;2022-10-16T04:43:32;0.40;;;0.40;;
49223;SDS011;35050;51.316;5.994;2022-10-16T04:45:58;0.47;;;0.47;;
49223;SDS011;35050;51.316;5.994;2022-10-16T04:48:24;0.50;;;0.50;;
49223;SDS011;35050;51.316;5.994;2022-10-16T04:50:49;1.27;;;0.60;;
49223;SDS011;35050;51.316;5.994;2022-10-16T04:53:15;1.13;;;0.68;;
49223;SDS011;35050;51.316;5.994;2022-10-16T04:55:41;0.63;;;0.50;;
49223;SDS011;35050;51.316;5.994;2022-10-16T04:58:07;0.40;;;0.40;;
49223;SDS011;35050;51.316;5.994;2022-10-16T05:00:33;2.25;;;0.50;;
49223;SDS011;35050;51.316;5.994;2022-10-16T05:02:58;0.45;;;0.40;;
49223;SDS011;35050;51.316;5.994;2022-10-16T05:05:25;0.50;;;0.50;;
49223;SDS011;35050;51.316;5.994;2022-10-16T05:07:51;0.38;;;0.38;;
49223;SDS011;35050;51.316;5.994;2022-10-16T05:10:17;0.60;;;0.60;;
49223;SDS011;35050;51.316;5.994;2022-10-16T05:12:43;0.60;;;0.60;;
49223;SDS011;35050;51.316;5.994;2022-10-16T05:15:09;0.50;;;0.50;;
49223;SDS011;35050;51.316;5.994;2022-10-16T05:17:35;0.70;;;0.50;;
49223;SDS011;35050;51.316;5.994;2022-10-16T05:20:01;0.50;;;0.50;;
49223;SDS011;35050;51.316;5.994;2022-10-16T05:22:28;0.95;;;0.43;;
49223;SDS011;35050;51.316;5.994;2022-10-16T05:24:53;0.38;;;0.38;;
49223;SDS011;35050;51.316;5.994;2022-10-16T05:27:19;0.50;;;0.50;;
49223;SDS011;35050;51.316;5.994;2022-10-16T05:29:45;0.57;;;0.50;;
49223;SDS011;35050;51.316;5.994;2022-10-16T05:32:12;0.50;;;0.50;;
49223;SDS011;35050;51.316;5.994;2022-10-16T05:34:41;0.93;;;0.60;;
49223;SDS011;35050;51.316;5.994;2022-10-16T05:37:07;0.52;;;0.40;;
49223;SDS011;35050;51.316;5.994;2022-10-16T05:39:33;1.10;;;0.70;;
49223;SDS011;35050;51.316;5.994;2022-10-16T05:41:59;0.82;;;0.73;;
49223;SDS011;35050;51.316;5.994;2022-10-16T05:44:25;0.90;;;0.60;;
49223;SDS011;35050;51.316;5.994;2022-10-16T05:46:50;0.65;;;0.50;;
49223;SDS011;35050;51.316;5.994;2022-10-16T05:49:16;0.82;;;0.50;;
49223;SDS011;35050;51.316;5.994;2022-10-16T05:51:41;0.32;;;0.32;;
49223;SDS011;35050;51.316;5.994;2022-10-16T05:54:07;1.20;;;0.70;;
49223;SDS011;35050;51.316;5.994;2022-10-16T05:56:33;0.55;;;0.50;;
49223;SDS011;35050;51.316;5.994;2022-10-16T05:58:59;0.82;;;0.70;;
49223;SDS011;35050;51.316;5.994;2022-10-16T06:01:24;0.88;;;0.80;;
49223;SDS011;35050;51.316;5.994;2022-10-16T06:03:50;1.67;;;0.70;;
49223;SDS011;35050;51.316;5.994;2022-10-16T06:06:21;0.60;;;0.60;;
49223;SDS011;35050;51.316;5.994;2022-10-16T06:08:48;0.55;;;0.52;;
49223;SDS011;35050;51.316;5.994;2022-10-16T06:11:16;0.70;;;0.70;;
49223;SDS011;35050;51.316;5.994;2022-10-16T06:13:43;0.65;;;0.65;;
49223;SDS011;35050;51.316;5.994;2022-10-16T06:16:10;0.75;;;0.65;;
49223;SDS011;35050;51.316;5.994;2022-10-16T06:18:37;0.60;;;0.60;;
49223;SDS011;35050;51.316;5.994;2022-10-16T06:21:13;2.47;;;1.23;;
49223;SDS011;35050;51.316;5.994;2022-10-16T06:23:41;0.70;;;0.57;;
49223;SDS011;35050;51.316;5.994;2022-10-16T06:26:08;0.57;;;0.57;;
49223;SDS011;35050;51.316;5.994;2022-10-16T06:28:38;0.60;;;0.60;;
49223;SDS011;35050;51.316;5.994;2022-10-16T06:31:05;1.23;;;0.75;;
49223;SDS011;35050;51.316;5.994;2022-10-16T06:33:32;1.83;;;1.05;;
49223;SDS011;35050;51.316;5.994;2022-10-16T06:36:05;0.85;;;0.85;;
49223;SDS011;35050;51.316;5.994;2022-10-16T06:38:33;1.17;;;1.00;;
49223;SDS011;35050;51.316;5.994;2022-10-16T06:40:59;1.42;;;0.80;;
49223;SDS011;35050;51.316;5.994;2022-10-16T06:43:26;0.73;;;0.70;;
49223;SDS011;35050;51.316;5.994;2022-10-16T06:45:57;0.93;;;0.60;;
49223;SDS011;35050;51.316;5.994;2022-10-16T06:48:23;1.27;;;0.70;;
49223;SDS011;35050;51.316;5.994;2022-10-16T06:50:57;0.85;;;0.70;;
49223;SDS011;35050;51.316;5.994;2022-10-16T06:53:28;0.85;;;0.80;;
49223;SDS011;35050;51.316;5.994;2022-10-16T06:55:55;0.77;;;0.60;;
49223;SDS011;35050;51.316;5.994;2022-10-16T06:58:21;1.08;;;0.88;;
49223;SDS011;35050;51.316;5.994;2022-10-16T07:00:48;0.95;;;0.80;;
49223;SDS011;35050;51.316;5.994;2022-10-16T07:03:14;0.77;;;0.73;;
49223;SDS011;35050;51.316;5.994;2022-10-16T07:05:40;1.15;;;1.05;;
49223;SDS011;35050;51.316;5.994;2022-10-16T07:08:07;0.90;;;0.90;;
49223;SDS011;35050;51.316;5.994;2022-10-16T07:10:34;1.00;;;0.80;;
49223;SDS011;35050;51.316;5.994;2022-10-16T07:13:00;0.80;;;0.80;;
49223;SDS011;35050;51.316;5.994;2022-10-16T07:15:26;2.15;;;0.90;;
49223;SDS011;35050;51.316;5.994;2022-10-16T07:17:52;0.80;;;0.75;;
49223;SDS011;35050;51.316;5.994;2022-10-16T07:20:18;0.70;;;0.70;;
49223;SDS011;35050;51.316;5.994;2022-10-16T07:22:44;1.17;;;1.08;;
49223;SDS011;35050;51.316;5.994;2022-10-16T07:25:10;1.13;;;0.90;;
49223;SDS011;35050;51.316;5.994;2022-10-16T07:27:36;0.90;;;0.90;;
49223;SDS011;35050;51.316;5.994;2022-10-16T07:30:02;1.55;;;0.65;;
49223;SDS011;35050;51.316;5.994;2022-10-16T07:32:28;0.98;;;0.80;;
49223;SDS011;35050;51.316;5.994;2022-10-16T07:34:54;1.90;;;1.02;;
49223;SDS011;35050;51.316;5.994;2022-10-16T07:37:20;1.00;;;1.00;;
49223;SDS011;35050;51.316;5.994;2022-10-16T07:39:46;2.45;;;1.08;;
49223;SDS011;35050;51.316;5.994;2022-10-16T07:42:12;1.45;;;0.95;;
49223;SDS011;35050;51.316;5.994;2022-10-16T07:44:37;1.10;;;1.10;;
49223;SDS011;35050;51.316;5.994;2022-10-16T07:47:03;2.22;;;1.08;;
49223;SDS011;35050;51.316;5.994;2022-10-16T07:49:29;2.72;;;1.40;;
49223;SDS011;35050;51.316;5.994;2022-10-16T07:51:54;1.83;;;1.27;;
49223;SDS011;35050;51.316;5.994;2022-10-16T07:54:20;1.52;;;1.20;;
49223;SDS011;35050;51.316;5.994;2022-10-16T07:56:45;1.38;;;1.27;;
49223;SDS011;35050;51.316;5.994;2022-10-16T07:59:11;1.33;;;1.00;;
49223;SDS011;35050;51.316;5.994;2022-10-16T08:01:37;1.58;;;1.10;;
49223;SDS011;35050;51.316;5.994;2022-10-16T08:04:03;1.38;;;0.88;;
49223;SDS011;35050;51.316;5.994;2022-10-16T08:06:28;2.47;;;1.20;;
49223;SDS011;35050;51.316;5.994;2022-10-16T08:08:54;1.38;;;1.00;;
49223;SDS011;35050;51.316;5.994;2022-10-16T08:11:21;1.80;;;0.95;;
49223;SDS011;35050;51.316;5.994;2022-10-16T08:13:46;2.28;;;1.20;;
49223;SDS011;35050;51.316;5.994;2022-10-16T08:16:12;1.92;;;1.15;;
49223;SDS011;35050;51.316;5.994;2022-10-16T08:18:38;1.38;;;1.05;;
49223;SDS011;35050;51.316;5.994;2022-10-16T08:21:05;2.67;;;1.13;;
49223;SDS011;35050;51.316;5.994;2022-10-16T08:23:32;1.33;;;1.10;;
49223;SDS011;35050;51.316;5.994;2022-10-16T08:26:01;1.45;;;1.00;;
49223;SDS011;35050;51.316;5.994;2022-10-16T08:28:30;2.63;;;1.47;;
49223;SDS011;35050;51.316;5.994;2022-10-16T08:30:55;1.80;;;1.20;;
49223;SDS011;35050;51.316;5.994;2022-10-16T08:33:24;1.30;;;1.20;;
49223;SDS011;35050;51.316;5.994;2022-10-16T08:35:52;2.80;;;1.10;;
49223;SDS011;35050;51.316;5.994;2022-10-16T08:38:18;1.90;;;0.98;;
49223;SDS011;35050;51.316;5.994;2022-10-16T08:40:44;1.80;;;1.05;;
49223;SDS011;35050;51.316;5.994;2022-10-16T08:51:24;2.33;;;1.75;;
49223;SDS011;35050;51.316;5.994;2022-10-16T08:56:30;3.17;;;1.10;;
49223;SDS011;35050;51.316;5.994;2022-10-16T08:58:57;3.35;;;1.10;;
49223;SDS011;35050;51.316;5.994;2022-10-16T09:01:24;0.82;;;0.82;;
49223;SDS011;35050;51.316;5.994;2022-10-16T09:07:00;1.35;;;1.10;;
49223;SDS011;35050;51.316;5.994;2022-10-16T09:09:31;4.70;;;1.20;;
49223;SDS011;35050;51.316;5.994;2022-10-16T09:12:12;1.40;;;0.90;;
49223;SDS011;35050;51.316;5.994;2022-10-16T09:14:52;1.92;;;1.00;;
49223;SDS011;35050;51.316;5.994;2022-10-16T09:17:41;2.03;;;0.98;;
49223;SDS011;35050;51.316;5.994;2022-10-16T09:23:18;2.78;;;0.93;;
49223;SDS011;35050;51.316;5.994;2022-10-16T09:25:50;1.63;;;0.90;;
49223;SDS011;35050;51.316;5.994;2022-10-16T09:28:16;2.45;;;0.98;;
49223;SDS011;35050;51.316;5.994;2022-10-16T09:30:43;1.80;;;0.80;;
49223;SDS011;35050;51.316;5.994;2022-10-16T09:33:10;1.70;;;0.70;;
49223;SDS011;35050;51.316;5.994;2022-10-16T09:35:38;2.05;;;0.90;;
49223;SDS011;35050;51.316;5.994;2022-10-16T09:38:07;2.28;;;0.80;;
49223;SDS011;35050;51.316;5.994;2022-10-16T09:40:37;1.45;;;0.90;;
49223;SDS011;35050;51.316;5.994;2022-10-16T09:45:38;3.17;;;1.20;;
49223;SDS011;35050;51.316;5.994;2022-10-16T09:48:11;1.08;;;0.65;;
49223;SDS011;35050;51.316;5.994;2022-10-16T09:50:38;2.25;;;0.80;;
49223;SDS011;35050;51.316;5.994;2022-10-16T09:53:13;2.05;;;0.85;;
49223;SDS011;35050;51.316;5.994;2022-10-16T09:55:49;1.42;;;0.52;;
49223;SDS011;35050;51.316;5.994;2022-10-16T09:58:16;1.52;;;0.70;;
49223;SDS011;35050;51.316;5.994;2022-10-16T10:00:42;2.55;;;0.80;;
49223;SDS011;35050;51.316;5.994;2022-10-16T10:05:55;3.83;;;0.90;;
49223;SDS011;35050;51.316;5.994;2022-10-16T10:08:21;2.22;;;0.82;;
49223;SDS011;35050;51.316;5.994;2022-10-16T10:10:47;1.52;;;0.68;;
49223;SDS011;35050;51.316;5.994;2022-10-16T10:13:20;2.03;;;0.60;;
49223;SDS011;35050;51.316;5.994;2022-10-16T10:15:50;1.33;;;0.55;;
49223;SDS011;35050;51.316;5.994;2022-10-16T10:18:20;2.05;;;0.75;;
49223;SDS011;35050;51.316;5.994;2022-10-16T10:21:01;1.17;;;0.68;;
49223;SDS011;35050;51.316;5.994;2022-10-16T10:23:28;2.67;;;0.73;;
49223;SDS011;35050;51.316;5.994;2022-10-16T10:28:59;1.85;;;0.75;;
49223;SDS011;35050;51.316;5.994;2022-10-16T10:34:32;1.90;;;1.02;;
49223;SDS011;35050;51.316;5.994;2022-10-16T10:37:27;0.68;;;0.57;;
49223;SDS011;35050;51.316;5.994;2022-10-16T10:40:16;4.60;;;0.70;;
49223;SDS011;35050;51.316;5.994;2022-10-16T10:45:46;1.75;;;0.50;;
49223;SDS011;35050;51.316;5.994;2022-10-16T10:51:14;1.77;;;0.98;;
49223;SDS011;35050;51.316;5.994;2022-10-16T10:57:21;2.65;;;0.73;;
49223;SDS011;35050;51.316;5.994;2022-10-16T11:00:03;2.45;;;0.50;;
49223;SDS011;35050;51.316;5.994;2022-10-16T11:02:57;1.73;;;0.60;;
49223;SDS011;35050;51.316;5.994;2022-10-16T11:05:46;1.10;;;0.70;;
49223;SDS011;35050;51.316;5.994;2022-10-16T11:11:16;2.35;;;0.82;;
49223;SDS011;35050;51.316;5.994;2022-10-16T11:13:47;0.88;;;0.50;;
49223;SDS011;35050;51.316;5.994;2022-10-16T11:16:30;2.47;;;0.98;;
49223;SDS011;35050;51.316;5.994;2022-10-16T11:21:28;2.15;;;0.73;;
49223;SDS011;35050;51.316;5.994;2022-10-16T11:24:20;1.52;;;0.50;;
49223;SDS011;35050;51.316;5.994;2022-10-16T11:26:50;0.82;;;0.45;;
49223;SDS011;35050;51.316;5.994;2022-10-16T11:29:25;0.88;;;0.50;;
49223;SDS011;35050;51.316;5.994;2022-10-16T11:32:05;2.55;;;0.70;;
49223;SDS011;35050;51.316;5.994;2022-10-16T11:34:43;1.08;;;0.55;;
49223;SDS011;35050;51.316;5.994;2022-10-16T11:43:02;0.75;;;0.40;;
49223;SDS011;35050;51.316;5.994;2022-10-16T11:54:24;1.73;;;0.70;;
49223;SDS011;35050;51.316;5.994;2022-10-16T11:57:01;0.80;;;0.45;;
49223;SDS011;35050;51.316;5.994;2022-10-16T11:59:55;0.80;;;0.40;;
49223;SDS011;35050;51.316;5.994;2022-10-16T12:05:12;1.05;;;0.43;;
49223;SDS011;35050;51.316;5.994;2022-10-16T12:08:11;0.85;;;0.30;;
49223;SDS011;35050;51.316;5.994;2022-10-16T12:10:38;1.00;;;0.80;;
49223;SDS011;35050;51.316;5.994;2022-10-16T12:16:05;1.08;;;0.60;;
49223;SDS011;35050;51.316;5.994;2022-10-16T12:18:37;0.95;;;0.80;;
49223;SDS011;35050;51.316;5.994;2022-10-16T12:21:04;2.83;;;1.02;;
49223;SDS011;35050;51.316;5.994;2022-10-16T12:23:31;2.22;;;0.70;;
49223;SDS011;35050;51.316;5.994;2022-10-16T12:26:01;1.13;;;0.60;;
49223;SDS011;35050;51.316;5.994;2022-10-16T12:28:28;1.25;;;0.60;;
49223;SDS011;35050;51.316;5.994;2022-10-16T12:31:00;0.90;;;0.30;;
49223;SDS011;35050;51.316;5.994;2022-10-16T12:35:58;0.80;;;0.35;;
49223;SDS011;35050;51.316;5.994;2022-10-16T12:38:27;1.60;;;0.60;;
49223;SDS011;35050;51.316;5.994;2022-10-16T12:41:08;0.70;;;0.40;;
49223;SDS011;35050;51.316;5.994;2022-10-16T12:46:06;0.75;;;0.30;;
49223;SDS011;35050;51.316;5.994;2022-10-16T12:48:48;0.50;;;0.45;;
49223;SDS011;35050;51.316;5.994;2022-10-16T12:54:26;1.38;;;0.40;;
49223;SDS011;35050;51.316;5.994;2022-10-16T13:11:22;2.97;;;0.52;;
49223;SDS011;35050;51.316;5.994;2022-10-16T13:17:26;0.30;;;0.30;;
49223;SDS011;35050;51.316;5.994;2022-10-16T13:22:55;0.20;;;0.20;;
49223;SDS011;35050;51.316;5.994;2022-10-16T13:28:10;1.40;;;0.47;;
49223;SDS011;35050;51.316;5.994;2022-10-16T13:30:39;0.30;;;0.20;;
49223;SDS011;35050;51.316;5.994;2022-10-16T13:33:10;0.68;;;0.47;;
49223;SDS011;35050;51.316;5.994;2022-10-16T13:35:46;0.57;;;0.30;;
49223;SDS011;35050;51.316;5.994;2022-10-16T13:38:15;0.57;;;0.30;;
49223;SDS011;35050;51.316;5.994;2022-10-16T13:43:39;0.73;;;0.50;;
49223;SDS011;35050;51.316;5.994;2022-10-16T13:46:12;0.68;;;0.52;;
49223;SDS011;35050;51.316;5.994;2022-10-16T13:48:58;0.40;;;0.40;;
49223;SDS011;35050;51.316;5.994;2022-10-16T13:51:36;1.13;;;0.80;;
49223;SDS011;35050;51.316;5.994;2022-10-16T13:54:02;1.23;;;0.50;;
49223;SDS011;35050;51.316;5.994;2022-10-16T13:56:28;1.15;;;0.60;;
49223;SDS011;35050;51.316;5.994;2022-10-16T13:59:06;0.98;;;0.40;;
49223;SDS011;35050;51.316;5.994;2022-10-16T14:01:47;2.97;;;0.45;;
49223;SDS011;35050;51.316;5.994;2022-10-16T14:04:13;0.47;;;0.30;;
49223;SDS011;35050;51.316;5.994;2022-10-16T14:06:41;1.08;;;0.40;;
49223;SDS011;35050;51.316;5.994;2022-10-16T14:09:13;2.95;;;0.40;;
49223;SDS011;35050;51.316;5.994;2022-10-16T14:12:01;1.67;;;0.40;;
49223;SDS011;35050;51.316;5.994;2022-10-16T14:14:34;0.73;;;0.35;;
49223;SDS011;35050;51.316;5.994;2022-10-16T14:17:05;0.40;;;0.25;;
49223;SDS011;35050;51.316;5.994;2022-10-16T14:19:38;0.63;;;0.20;;
49223;SDS011;35050;51.316;5.994;2022-10-16T14:22:03;0.57;;;0.43;;
49223;SDS011;35050;51.316;5.994;2022-10-16T14:25:24;0.63;;;0.30;;
49223;SDS011;35050;51.316;5.994;2022-10-16T14:30:49;1.45;;;0.30;;
49223;SDS011;35050;51.316;5.994;2022-10-16T14:33:21;0.22;;;0.22;;
49223;SDS011;35050;51.316;5.994;2022-10-16T14:36:11;1.08;;;0.35;;
49223;SDS011;35050;51.316;5.994;2022-10-16T14:38:39;0.73;;;0.25;;
49223;SDS011;35050;51.316;5.994;2022-10-16T14:41:07;0.45;;;0.32;;
49223;SDS011;35050;51.316;5.994;2022-10-16T14:43:37;0.80;;;0.50;;
49223;SDS011;35050;51.316;5.994;2022-10-16T14:46:11;0.30;;;0.30;;
49223;SDS011;35050;51.316;5.994;2022-10-16T14:48:43;0.80;;;0.60;;
49223;SDS011;35050;51.316;5.994;2022-10-16T14:51:14;0.85;;;0.60;;
49223;SDS011;35050;51.316;5.994;2022-10-16T14:53:41;1.30;;;0.70;;
49223;SDS011;35050;51.316;5.994;2022-10-16T14:56:07;1.70;;;1.08;;
49223;SDS011;35050;51.316;5.994;2022-10-16T14:58:39;2.63;;;1.50;;
49223;SDS011;35050;51.316;5.994;2022-10-16T15:01:05;3.65;;;2.05;;
49223;SDS011;35050;51.316;5.994;2022-10-16T15:03:33;11.82;;;2.55;;
49223;SDS011;35050;51.316;5.994;2022-10-16T15:05:59;4.15;;;2.47;;
49223;SDS011;35050;51.316;5.994;2022-10-16T15:08:24;4.20;;;2.70;;
49223;SDS011;35050;51.316;5.994;2022-10-16T15:10:50;5.15;;;2.50;;
49223;SDS011;35050;51.316;5.994;2022-10-16T15:13:16;4.07;;;2.10;;
49223;SDS011;35050;51.316;5.994;2022-10-16T15:15:43;4.60;;;2.20;;
49223;SDS011;35050;51.316;5.994;2022-10-16T15:18:10;5.40;;;2.00;;
49223;SDS011;35050;51.316;5.994;2022-10-16T15:20:36;3.83;;;1.90;;
49223;SDS011;35050;51.316;5.994;2022-10-16T15:23:04;3.20;;;1.73;;
49223;SDS011;35050;51.316;5.994;2022-10-16T15:28:07;1.60;;;1.10;;
49223;SDS011;35050;51.316;5.994;2022-10-16T15:30:34;1.10;;;0.80;;
49223;SDS011;35050;51.316;5.994;2022-10-16T15:33:01;1.55;;;0.90;;
49223;SDS011;35050;51.316;5.994;2022-10-16T15:35:27;2.65;;;0.63;;
49223;SDS011;35050;51.316;5.994;2022-10-16T15:37:53;1.42;;;0.80;;
49223;SDS011;35050;51.316;5.994;2022-10-16T15:40:19;1.23;;;0.70;;
49223;SDS011;35050;51.316;5.994;2022-10-16T15:42:46;0.80;;;0.60;;
49223;SDS011;35050;51.316;5.994;2022-10-16T15:45:12;1.08;;;0.77;;
49223;SDS011;35050;51.316;5.994;2022-10-16T15:47:38;0.90;;;0.90;;
49223;SDS011;35050;51.316;5.994;2022-10-16T15:50:06;0.70;;;0.70;;
49223;SDS011;35050;51.316;5.994;2022-10-16T15:52:34;1.60;;;1.15;;
49223;SDS011;35050;51.316;5.994;2022-10-16T15:54:59;1.83;;;1.05;;
49223;SDS011;35050;51.316;5.994;2022-10-16T15:57:27;1.10;;;0.90;;
49223;SDS011;35050;51.316;5.994;2022-10-16T15:59:54;2.25;;;1.35;;
49223;SDS011;35050;51.316;5.994;2022-10-16T16:02:20;1.33;;;0.70;;
49223;SDS011;35050;51.316;5.994;2022-10-16T16:04:45;0.98;;;0.80;;
49223;SDS011;35050;51.316;5.994;2022-10-16T16:07:11;1.70;;;0.70;;
49223;SDS011;35050;51.316;5.994;2022-10-16T16:09:36;1.52;;;0.90;;
49223;SDS011;35050;51.316;5.994;2022-10-16T16:12:02;1.73;;;0.93;;
49223;SDS011;35050;51.316;5.994;2022-10-16T16:14:28;0.65;;;0.65;;
49223;SDS011;35050;51.316;5.994;2022-10-16T16:16:54;1.27;;;0.65;;
49223;SDS011;35050;51.316;5.994;2022-10-16T16:19:20;0.82;;;0.60;;
49223;SDS011;35050;51.316;5.994;2022-10-16T16:21:47;0.98;;;0.60;;
49223;SDS011;35050;51.316;5.994;2022-10-16T16:24:13;0.88;;;0.57;;
49223;SDS011;35050;51.316;5.994;2022-10-16T16:26:39;1.38;;;0.50;;
49223;SDS011;35050;51.316;5.994;2022-10-16T16:29:08;1.60;;;0.50;;
49223;SDS011;35050;51.316;5.994;2022-10-16T16:31:37;1.52;;;0.50;;
49223;SDS011;35050;51.316;5.994;2022-10-16T16:34:03;1.27;;;0.43;;
49223;SDS011;35050;51.316;5.994;2022-10-16T16:36:29;0.73;;;0.50;;
49223;SDS011;35050;51.316;5.994;2022-10-16T16:38:56;0.95;;;0.70;;
49223;SDS011;35050;51.316;5.994;2022-10-16T16:41:23;0.80;;;0.60;;
49223;SDS011;35050;51.316;5.994;2022-10-16T16:43:50;0.90;;;0.47;;
49223;SDS011;35050;51.316;5.994;2022-10-16T16:46:17;1.05;;;0.57;;
49223;SDS011;35050;51.316;5.994;2022-10-16T16:48:44;1.05;;;0.70;;
49223;SDS011;35050;51.316;5.994;2022-10-16T16:51:11;1.27;;;0.55;;
49223;SDS011;35050;51.316;5.994;2022-10-16T16:53:46;0.73;;;0.65;;
49223;SDS011;35050;51.316;5.994;2022-10-16T16:56:14;0.60;;;0.50;;
49223;SDS011;35050;51.316;5.994;2022-10-16T16:58:39;0.80;;;0.60;;
49223;SDS011;35050;51.316;5.994;2022-10-16T17:01:05;0.52;;;0.30;;
49223;SDS011;35050;51.316;5.994;2022-10-16T17:03:34;0.40;;;0.40;;